createdAt,value
2018-07-03T00:00:50.889Z,87.2
2018-07-03T00:01:51.610Z,87.5
2018-07-03T00:02:52.327Z,87.5
2018-07-03T00:03:53.286Z,87.6
2018-07-03T00:04:54.013Z,87.3
2018-07-03T00:05:54.837Z,87.2
2018-07-03T00:06:55.558Z,87.8
2018-07-03T00:07:56.276Z,88.0
2018-07-03T00:08:56.989Z,87.5
2018-07-03T00:09:57.717Z,87.7
2018-07-03T00:10:58.428Z,87.3
2018-07-03T00:11:59.153Z,87.4
2018-07-03T00:12:59.883Z,87.5
2018-07-03T00:14:00.596Z,87.5
2018-07-03T00:15:01.316Z,87.6
2018-07-03T00:16:02.071Z,87.5
2018-07-03T00:17:02.768Z,87.5
2018-07-03T00:18:03.481Z,87.5
2018-07-03T00:19:04.200Z,88.0
2018-07-03T00:20:04.930Z,88.1
2018-07-03T00:21:05.631Z,87.9
2018-07-03T00:22:06.401Z,87.8
2018-07-03T00:23:07.135Z,88.0
2018-07-03T00:24:07.853Z,88.0
2018-07-03T00:25:08.578Z,88.1
2018-07-03T00:26:09.291Z,87.7
2018-07-03T00:27:10.013Z,88.4
2018-07-03T00:28:10.730Z,88.2
2018-07-03T00:29:11.747Z,88.1
2018-07-03T00:30:12.465Z,87.8
2018-07-03T00:31:13.194Z,88.0
2018-07-03T00:32:13.924Z,88.2
2018-07-03T00:33:14.639Z,88.4
2018-07-03T00:34:15.360Z,88.4
2018-07-03T00:35:16.084Z,88.2
2018-07-03T00:36:16.821Z,88.2
2018-07-03T00:37:17.537Z,88.4
2018-07-03T00:38:18.241Z,88.3
2018-07-03T00:39:19.016Z,88.5
2018-07-03T00:40:19.733Z,88.5
2018-07-03T00:41:20.460Z,88.5
2018-07-03T00:42:21.177Z,88.9
2018-07-03T00:43:21.896Z,88.9
2018-07-03T00:44:22.686Z,88.6
2018-07-03T00:45:23.418Z,88.6
2018-07-03T00:46:24.145Z,88.8
2018-07-03T00:47:24.860Z,88.6
2018-07-03T00:48:25.837Z,88.6
2018-07-03T00:49:26.662Z,89.1
2018-07-03T00:50:27.376Z,88.7
2018-07-03T00:51:28.350Z,88.9
2018-07-03T00:52:29.064Z,88.9
2018-07-03T00:53:29.781Z,88.4
2018-07-03T00:54:30.555Z,88.7
2018-07-03T00:55:31.582Z,89.3
2018-07-03T00:56:32.233Z,89.2
2018-07-03T00:57:32.944Z,89.4
2018-07-03T00:58:33.681Z,89.3
2018-07-03T00:59:34.392Z,89.2
2018-07-03T01:00:35.136Z,89.1
2018-07-03T01:01:35.854Z,88.7
2018-07-03T01:02:36.572Z,88.9
2018-07-03T01:03:37.286Z,89.1
2018-07-03T01:04:38.269Z,89.5
2018-07-03T01:05:39.002Z,89.3
2018-07-03T01:06:40.123Z,89.6
2018-07-03T01:07:40.853Z,89.8
2018-07-03T01:08:41.600Z,89.6
2018-07-03T01:09:42.300Z,89.4
2018-07-03T01:10:43.025Z,89.7
2018-07-03T01:11:43.764Z,89.9
2018-07-03T01:12:44.487Z,89.8
2018-07-03T01:13:45.209Z,90.0
2018-07-03T01:14:45.938Z,90.1
2018-07-03T01:15:46.661Z,90.0
2018-07-03T01:16:47.548Z,90.2
2018-07-03T01:17:48.265Z,89.7
2018-07-03T01:18:48.985Z,90.2
2018-07-03T01:19:49.721Z,90.1
2018-07-03T01:20:50.451Z,90.1
2018-07-03T01:21:51.314Z,90.2
2018-07-03T01:22:52.056Z,90.2
2018-07-03T01:23:52.779Z,89.9
2018-07-03T01:24:53.502Z,90.2
2018-07-03T01:25:54.469Z,89.7
2018-07-03T01:26:55.202Z,89.4
2018-07-03T01:27:55.908Z,89.5
2018-07-03T01:28:56.638Z,90.7
2018-07-03T01:29:57.357Z,90.4
2018-07-03T01:30:58.076Z,90.3
2018-07-03T01:31:58.796Z,90.3
2018-07-03T01:32:59.529Z,90.8
2018-07-03T01:34:00.242Z,90.5
2018-07-03T01:35:00.950Z,90.6
2018-07-03T01:36:01.713Z,90.4
2018-07-03T01:37:02.381Z,90.1
2018-07-03T01:38:03.111Z,90.0
2018-07-03T01:39:03.827Z,90.5
2018-07-03T01:40:04.552Z,90.4
2018-07-03T01:41:05.263Z,90.4
2018-07-03T01:42:06.003Z,90.4
2018-07-03T01:43:06.733Z,90.2
2018-07-03T01:44:07.461Z,90.5
2018-07-03T01:45:08.430Z,90.5
2018-07-03T01:46:09.202Z,90.5
2018-07-03T01:47:09.876Z,90.4
2018-07-03T01:48:10.597Z,90.8
2018-07-03T01:49:11.316Z,90.4
2018-07-03T01:50:12.034Z,90.6
2018-07-03T01:51:12.764Z,90.6
2018-07-03T01:52:13.478Z,91.0
2018-07-03T01:53:14.602Z,90.6
2018-07-03T01:54:15.319Z,91.3
2018-07-03T01:55:16.059Z,90.8
2018-07-03T01:56:16.783Z,90.8
2018-07-03T01:57:17.510Z,91.1
2018-07-03T01:58:18.243Z,91.2
2018-07-03T01:59:18.956Z,91.1
2018-07-03T02:00:19.684Z,91.0
2018-07-03T02:01:20.404Z,90.9
2018-07-03T02:02:21.128Z,91.0
2018-07-03T02:03:21.951Z,91.1
2018-07-03T02:04:22.675Z,90.7
2018-07-03T02:05:23.400Z,91.0
2018-07-03T02:06:24.122Z,91.1
2018-07-03T02:07:24.845Z,91.0
2018-07-03T02:08:25.570Z,91.0
2018-07-03T02:09:26.307Z,90.9
2018-07-03T02:10:27.133Z,91.0
2018-07-03T02:11:27.854Z,90.9
2018-07-03T02:12:28.587Z,91.3
2018-07-03T02:13:29.313Z,91.1
2018-07-03T02:14:30.050Z,91.3
2018-07-03T02:15:30.817Z,91.3
2018-07-03T02:16:31.538Z,91.4
2018-07-03T02:17:32.268Z,91.6
2018-07-03T02:18:32.986Z,91.5
2018-07-03T02:19:33.719Z,91.6
2018-07-03T02:20:34.422Z,91.5
2018-07-03T02:21:35.246Z,91.4
2018-07-03T02:22:35.964Z,91.6
2018-07-03T02:23:36.687Z,92.0
2018-07-03T02:24:37.650Z,91.4
2018-07-03T02:25:38.397Z,91.8
2018-07-03T02:26:39.370Z,91.7
2018-07-03T02:27:40.082Z,91.8
2018-07-03T02:28:41.203Z,91.8
2018-07-03T02:29:41.926Z,91.6
2018-07-03T02:30:42.634Z,91.7
2018-07-03T02:31:43.387Z,91.3
2018-07-03T02:32:44.114Z,91.9
2018-07-03T02:33:44.890Z,92.0
2018-07-03T02:34:45.614Z,91.6
2018-07-03T02:35:46.337Z,91.6
2018-07-03T02:36:47.060Z,91.6
2018-07-03T02:37:47.779Z,91.8
2018-07-03T02:38:48.524Z,91.9
2018-07-03T02:39:49.242Z,92.0
2018-07-03T02:40:49.964Z,91.6
2018-07-03T02:41:50.686Z,91.8
2018-07-03T02:42:51.400Z,92.1
2018-07-03T02:43:52.117Z,92.3
2018-07-03T02:44:53.001Z,92.2
2018-07-03T02:45:53.732Z,92.1
2018-07-03T02:46:54.453Z,92.5
2018-07-03T02:47:55.187Z,92.3
2018-07-03T02:48:55.897Z,92.3
2018-07-03T02:49:56.626Z,92.6
2018-07-03T02:50:57.364Z,92.8
2018-07-03T02:51:58.092Z,92.8
2018-07-03T02:52:58.807Z,92.6
2018-07-03T02:53:59.520Z,92.6
2018-07-03T02:55:00.590Z,92.7
2018-07-03T02:56:01.557Z,92.6
2018-07-03T02:57:02.268Z,92.7
2018-07-03T02:58:02.983Z,92.6
2018-07-03T02:59:03.706Z,92.4
2018-07-03T03:00:04.580Z,92.7
2018-07-03T03:01:05.309Z,92.9
2018-07-03T03:02:06.043Z,93.0
2018-07-03T03:03:06.768Z,92.9
2018-07-03T03:04:07.502Z,92.9
2018-07-03T03:05:08.307Z,92.6
2018-07-03T03:06:09.061Z,93.2
2018-07-03T03:07:09.899Z,92.8
2018-07-03T03:08:10.837Z,93.1
2018-07-03T03:09:11.558Z,93.7
2018-07-03T03:10:12.325Z,93.2
2018-07-03T03:11:13.543Z,93.6
2018-07-03T03:12:14.304Z,93.5
2018-07-03T03:13:15.159Z,93.0
2018-07-03T03:14:15.930Z,93.0
2018-07-03T03:15:16.712Z,93.7
2018-07-03T03:16:17.637Z,93.4
2018-07-03T03:17:18.394Z,93.5
2018-07-03T03:18:19.118Z,93.2
2018-07-03T03:19:19.853Z,93.5
2018-07-03T03:20:20.828Z,93.4
2018-07-03T03:21:21.560Z,93.6
2018-07-03T03:22:22.342Z,93.4
2018-07-03T03:23:23.000Z,93.6
2018-07-03T03:24:23.735Z,93.5
2018-07-03T03:25:24.460Z,93.7
2018-07-03T03:26:25.198Z,93.8
2018-07-03T03:27:25.913Z,93.9
2018-07-03T03:28:26.636Z,94.1
2018-07-03T03:29:27.374Z,94.1
2018-07-03T03:30:28.107Z,94.1
2018-07-03T03:31:28.830Z,94.1
2018-07-03T03:32:29.594Z,93.9
2018-07-03T03:33:30.325Z,94.2
2018-07-03T03:34:31.043Z,94.2
2018-07-03T03:35:31.771Z,93.9
2018-07-03T03:36:32.495Z,94.0
2018-07-03T03:37:33.224Z,93.9
2018-07-03T03:38:33.942Z,94.0
2018-07-03T03:39:34.666Z,93.8
2018-07-03T03:40:35.388Z,93.9
2018-07-03T03:41:36.115Z,93.8
2018-07-03T03:42:36.839Z,94.0
2018-07-03T03:43:37.557Z,94.2
2018-07-03T03:44:38.276Z,94.3
2018-07-03T03:45:39.002Z,94.5
2018-07-03T03:46:39.718Z,94.4
2018-07-03T03:47:40.436Z,94.6
2018-07-03T03:48:41.155Z,94.6
2018-07-03T03:49:41.872Z,94.5
2018-07-03T03:50:42.607Z,94.7
2018-07-03T03:51:43.333Z,94.6
2018-07-03T03:52:44.050Z,94.6
2018-07-03T03:53:44.842Z,94.6
2018-07-03T03:54:45.551Z,95.2
2018-07-03T03:55:46.272Z,95.0
2018-07-03T03:56:47.248Z,94.7
2018-07-03T03:57:47.961Z,95.1
2018-07-03T03:58:48.727Z,94.9
2018-07-03T03:59:49.452Z,94.5
2018-07-03T04:00:50.433Z,94.9
2018-07-03T04:01:51.154Z,94.7
2018-07-03T04:02:51.886Z,95.6
2018-07-03T04:03:52.605Z,95.5
2018-07-03T04:04:53.323Z,95.5
2018-07-03T04:05:54.053Z,95.5
2018-07-03T04:06:54.780Z,95.4
2018-07-03T04:07:55.498Z,95.3
2018-07-03T04:08:56.223Z,95.3
2018-07-03T04:09:56.940Z,95.3
2018-07-03T04:10:57.673Z,95.4
2018-07-03T04:11:58.394Z,95.6
2018-07-03T04:12:59.127Z,95.4
2018-07-03T04:13:59.835Z,95.5
2018-07-03T04:15:00.574Z,95.6
2018-07-03T04:16:01.342Z,95.5
2018-07-03T04:17:02.086Z,95.5
2018-07-03T04:18:02.821Z,96.2
2018-07-03T04:19:03.617Z,96.3
2018-07-03T04:20:04.375Z,96.2
2018-07-03T04:21:05.288Z,96.2
2018-07-03T04:22:06.145Z,96.1
2018-07-03T04:23:06.868Z,96.1
2018-07-03T04:24:07.600Z,95.9
2018-07-03T04:25:08.336Z,96.2
2018-07-03T04:26:09.115Z,96.2
2018-07-03T04:27:09.847Z,96.3
2018-07-03T04:28:10.584Z,96.2
2018-07-03T04:29:11.309Z,96.1
2018-07-03T04:30:12.038Z,96.4
2018-07-03T04:31:13.123Z,96.4
2018-07-03T04:32:13.851Z,96.6
2018-07-03T04:33:14.570Z,96.6
2018-07-03T04:34:15.293Z,96.0
2018-07-03T04:35:16.020Z,96.0
2018-07-03T04:36:16.799Z,96.2
2018-07-03T04:37:17.525Z,96.2
2018-07-03T04:38:18.251Z,96.2
2018-07-03T04:39:18.977Z,96.1
2018-07-03T04:40:19.700Z,96.1
2018-07-03T04:41:20.465Z,96.4
2018-07-03T04:42:21.153Z,96.0
2018-07-03T04:43:21.881Z,96.0
2018-07-03T04:44:22.612Z,96.2
2018-07-03T04:45:23.333Z,96.1
2018-07-03T04:46:24.065Z,96.2
2018-07-03T04:47:24.785Z,96.2
2018-07-03T04:48:25.516Z,96.1
2018-07-03T04:49:26.244Z,96.2
2018-07-03T04:50:26.958Z,96.1
2018-07-03T04:51:27.692Z,96.4
2018-07-03T04:52:28.410Z,96.3
2018-07-03T04:53:29.181Z,96.3
2018-07-03T04:54:29.869Z,96.3
2018-07-03T04:55:30.597Z,96.0
2018-07-03T04:56:31.378Z,95.6
2018-07-03T04:57:32.126Z,95.8
2018-07-03T04:58:32.851Z,95.9
2018-07-03T04:59:33.588Z,95.4
2018-07-03T05:00:34.308Z,95.4
2018-07-03T05:01:35.048Z,95.4
2018-07-03T05:02:35.790Z,95.7
2018-07-03T05:03:36.506Z,95.5
2018-07-03T05:04:37.247Z,95.5
2018-07-03T05:05:37.967Z,95.1
2018-07-03T05:06:38.701Z,94.9
2018-07-03T05:07:39.831Z,94.8
2018-07-03T05:08:40.554Z,94.6
2018-07-03T05:09:41.528Z,94.4
2018-07-03T05:10:42.549Z,94.4
2018-07-03T05:11:43.255Z,94.2
2018-07-03T05:12:44.040Z,94.1
2018-07-03T05:13:44.752Z,94.2
2018-07-03T05:14:45.472Z,94.2
2018-07-03T05:15:46.205Z,94.3
2018-07-03T05:16:46.938Z,94.3
2018-07-03T05:17:47.651Z,94.2
2018-07-03T05:18:48.379Z,94.0
2018-07-03T05:19:49.352Z,93.0
2018-07-03T05:20:50.085Z,93.8
2018-07-03T05:21:50.820Z,93.2
2018-07-03T05:22:51.549Z,92.8
2018-07-03T05:23:52.381Z,92.8
2018-07-03T05:24:53.116Z,92.1
2018-07-03T05:25:54.096Z,92.1
2018-07-03T05:26:54.822Z,92.0
2018-07-03T05:27:55.555Z,91.9
2018-07-03T05:28:56.275Z,92.0
2018-07-03T05:29:57.006Z,92.1
2018-07-03T05:30:58.171Z,91.5
2018-07-03T05:31:59.458Z,91.2
2018-07-03T05:33:00.274Z,90.9
2018-07-03T05:34:01.359Z,89.9
2018-07-03T05:35:02.083Z,88.7
2018-07-03T05:36:03.254Z,88.4
2018-07-03T05:37:04.067Z,87.7
2018-07-03T05:38:05.097Z,87.4
2018-07-03T05:39:05.640Z,86.6
2018-07-03T05:40:06.615Z,86.4
2018-07-03T05:41:07.458Z,86.0
2018-07-03T05:42:08.176Z,85.9
2018-07-03T05:43:09.127Z,85.2
2018-07-03T05:44:09.793Z,84.9
2018-07-03T05:45:10.522Z,84.6
2018-07-03T05:46:11.258Z,84.0
2018-07-03T05:47:12.007Z,83.5
2018-07-03T05:48:12.725Z,83.5
2018-07-03T05:49:13.447Z,83.1
2018-07-03T05:50:14.204Z,82.6
2018-07-03T05:51:14.920Z,81.7
2018-07-03T05:52:15.920Z,81.0
2018-07-03T05:53:16.642Z,80.8
2018-07-03T05:54:17.379Z,79.8
2018-07-03T05:55:18.404Z,80.2
2018-07-03T05:56:19.417Z,79.1
2018-07-03T05:57:20.117Z,79.2
2018-07-03T05:58:20.847Z,78.9
2018-07-03T05:59:21.583Z,79.1
2018-07-03T06:00:22.319Z,79.1
2018-07-03T06:01:23.053Z,78.8
2018-07-03T06:02:23.778Z,78.9
2018-07-03T06:03:24.508Z,77.8
2018-07-03T06:04:25.288Z,77.6
2018-07-03T06:05:26.032Z,77.5
2018-07-03T06:06:26.758Z,77.0
2018-07-03T06:07:27.488Z,77.1
2018-07-03T06:08:28.215Z,77.5
2018-07-03T06:09:29.051Z,77.2
2018-07-03T06:10:29.740Z,76.8
2018-07-03T06:11:30.463Z,77.0
2018-07-03T06:12:31.197Z,76.7
2018-07-03T06:13:31.938Z,76.8
2018-07-03T06:14:32.713Z,77.2
2018-07-03T06:15:33.449Z,77.9
2018-07-03T06:16:34.178Z,78.2
2018-07-03T06:17:34.902Z,79.1
2018-07-03T06:18:35.626Z,79.1
2018-07-03T06:19:36.352Z,79.7
2018-07-03T06:20:37.099Z,80.1
2018-07-03T06:21:37.837Z,79.6
2018-07-03T06:22:38.578Z,79.4
2018-07-03T06:23:39.319Z,79.6
2018-07-03T06:24:40.446Z,79.6
2018-07-03T06:25:41.193Z,78.8
2018-07-03T06:26:41.915Z,79.0
2018-07-03T06:27:42.645Z,77.3
2018-07-03T06:28:43.373Z,76.1
2018-07-03T06:29:44.259Z,77.0
2018-07-03T06:30:45.002Z,77.2
2018-07-03T06:31:45.733Z,77.3
2018-07-03T06:32:46.460Z,76.2
2018-07-03T06:33:47.196Z,77.0
2018-07-03T06:34:47.936Z,76.8
2018-07-03T06:35:48.673Z,75.8
2018-07-03T06:36:49.407Z,75.4
2018-07-03T06:37:50.155Z,75.5
2018-07-03T06:38:50.892Z,75.5
2018-07-03T06:39:51.635Z,75.1
2018-07-03T06:40:52.356Z,75.1
2018-07-03T06:41:53.096Z,73.4
2018-07-03T06:42:53.829Z,73.8
2018-07-03T06:43:54.559Z,74.2
2018-07-03T06:44:55.304Z,74.1
2018-07-03T06:45:56.022Z,72.5
2018-07-03T06:46:56.795Z,72.9
2018-07-03T06:47:57.780Z,70.8
2018-07-03T06:48:58.507Z,70.7
2018-07-03T06:49:59.499Z,70.1
2018-07-03T06:51:00.235Z,70.5
2018-07-03T06:52:00.972Z,71.1
2018-07-03T06:53:01.704Z,71.3
2018-07-03T06:54:02.440Z,70.6
2018-07-03T06:55:03.173Z,70.2
2018-07-03T06:56:03.901Z,70.7
2018-07-03T06:57:04.631Z,70.6
2018-07-03T06:58:05.360Z,69.3
2018-07-03T06:59:06.097Z,70.9
2018-07-03T07:00:06.838Z,69.4
2018-07-03T07:01:07.581Z,66.2
2018-07-03T07:02:08.309Z,65.9
2018-07-03T07:03:09.041Z,65.7
2018-07-03T07:04:10.028Z,64.8
2018-07-03T07:05:10.780Z,63.2
2018-07-03T07:06:11.524Z,64.6
2018-07-03T07:07:12.245Z,64.4
2018-07-03T07:08:13.028Z,63.2
2018-07-03T07:09:13.820Z,62.6
2018-07-03T07:10:14.485Z,62.2
2018-07-03T07:11:15.220Z,62.2
2018-07-03T07:12:15.949Z,62.4
2018-07-03T07:13:16.692Z,62.2
2018-07-03T07:14:17.428Z,61.3
2018-07-03T07:15:18.172Z,62.1
2018-07-03T07:16:18.897Z,61.7
2018-07-03T07:17:19.875Z,61.6
2018-07-03T07:18:20.601Z,61.1
2018-07-03T07:19:21.334Z,60.5
2018-07-03T07:20:22.087Z,58.9
2018-07-03T07:21:22.823Z,58.1
2018-07-03T07:22:23.815Z,57.0
2018-07-03T07:23:24.560Z,56.0
2018-07-03T07:24:25.291Z,54.6
2018-07-03T07:25:26.031Z,53.0
2018-07-03T07:26:26.773Z,51.6
2018-07-03T07:27:27.525Z,52.1
2018-07-03T07:28:28.244Z,51.1
2018-07-03T07:29:28.978Z,50.7
2018-07-03T07:30:29.716Z,50.1
2018-07-03T07:31:30.443Z,50.2
2018-07-03T07:32:31.185Z,49.9
2018-07-03T07:33:31.920Z,50.2
2018-07-03T07:34:32.654Z,50.9
2018-07-03T07:35:33.396Z,50.6
2018-07-03T07:36:34.135Z,49.8
2018-07-03T07:37:34.921Z,49.8
2018-07-03T07:38:35.647Z,49.6
2018-07-03T07:39:36.382Z,48.6
2018-07-03T07:40:37.120Z,47.0
2018-07-03T07:41:37.870Z,45.0
2018-07-03T07:42:38.755Z,42.7
2018-07-03T07:43:39.441Z,39.1
2018-07-03T07:44:40.188Z,37.4
2018-07-03T07:45:40.922Z,39.2
2018-07-03T07:46:41.659Z,39.0
2018-07-03T07:47:42.433Z,39.1
2018-07-03T07:48:43.180Z,36.8
2018-07-03T07:49:43.906Z,35.5
2018-07-03T07:50:44.640Z,33.8
2018-07-03T07:51:45.384Z,37.1
2018-07-03T07:52:46.121Z,37.2
2018-07-03T07:53:46.862Z,36.1
2018-07-03T07:54:48.210Z,36.9
2018-07-03T07:55:48.941Z,36.1
2018-07-03T07:56:49.932Z,35.3
2018-07-03T07:57:50.668Z,34.0
2018-07-03T07:58:51.405Z,34.8
2018-07-03T07:59:52.148Z,32.6
2018-07-03T08:00:52.879Z,34.9
2018-07-03T08:01:53.616Z,35.9
2018-07-03T08:02:54.383Z,36.3
2018-07-03T08:03:55.122Z,36.6
2018-07-03T08:04:55.854Z,34.6
2018-07-03T08:05:56.590Z,33.3
2018-07-03T08:06:57.329Z,32.1
2018-07-03T08:07:58.071Z,33.9
2018-07-03T08:08:58.806Z,31.5
2018-07-03T08:09:59.603Z,34.0
2018-07-03T08:11:00.354Z,33.2
2018-07-03T08:12:01.100Z,33.1
2018-07-03T08:13:01.835Z,31.6
2018-07-03T08:14:02.586Z,29.8
2018-07-03T08:15:03.344Z,31.8
2018-07-03T08:16:04.079Z,34.9
2018-07-03T08:17:04.816Z,33.9
2018-07-03T08:18:05.562Z,33.9
2018-07-03T08:19:06.333Z,33.9
2018-07-03T08:20:07.042Z,35.3
2018-07-03T08:21:07.781Z,35.1
2018-07-03T08:22:08.511Z,33.5
2018-07-03T08:23:09.247Z,33.0
2018-07-03T08:24:09.980Z,32.4
2018-07-03T08:25:10.715Z,30.5
2018-07-03T08:26:11.466Z,29.5
2018-07-03T08:27:12.535Z,30.6
2018-07-03T08:28:13.265Z,29.5
2018-07-03T08:29:14.005Z,28.4
2018-07-03T08:30:14.749Z,29.0
2018-07-03T08:31:15.484Z,29.9
2018-07-03T08:32:16.262Z,30.3
2018-07-03T08:33:16.966Z,30.1
2018-07-03T08:34:17.763Z,29.1
2018-07-03T08:35:18.491Z,29.3
2018-07-03T08:36:19.240Z,29.9
2018-07-03T08:37:19.975Z,29.5
2018-07-03T08:38:20.712Z,29.7
2018-07-03T08:39:21.446Z,30.3
2018-07-03T08:40:22.193Z,28.2
2018-07-03T08:41:22.936Z,28.9
2018-07-03T08:42:23.717Z,29.9
2018-07-03T08:43:24.415Z,26.5
2018-07-03T08:44:25.457Z,25.1
2018-07-03T08:45:26.197Z,25.5
2018-07-03T08:46:26.934Z,25.1
2018-07-03T08:47:27.672Z,25.5
2018-07-03T08:48:28.407Z,25.3
2018-07-03T08:49:29.147Z,25.1
2018-07-03T08:50:29.886Z,24.8
2018-07-03T08:51:30.629Z,25.6
2018-07-03T08:52:31.376Z,27.3
2018-07-03T08:53:32.125Z,27.4
2018-07-03T08:54:32.858Z,25.5
2018-07-03T08:55:33.610Z,25.7
2018-07-03T08:56:34.440Z,25.1
2018-07-03T08:57:35.422Z,25.0
2018-07-03T08:58:36.170Z,25.2
2018-07-03T08:59:36.908Z,24.4
2018-07-03T09:00:37.643Z,24.6
2018-07-03T09:01:38.376Z,24.5
2018-07-03T09:02:39.128Z,28.0
2018-07-03T09:03:39.882Z,27.5
2018-07-03T09:04:40.597Z,26.4
2018-07-03T09:05:41.344Z,26.7
2018-07-03T09:06:42.189Z,26.1
2018-07-03T09:07:42.914Z,25.2
2018-07-03T09:08:43.653Z,25.0
2018-07-03T09:09:44.390Z,26.4
2018-07-03T09:10:45.136Z,26.6
2018-07-03T09:11:45.876Z,27.2
2018-07-03T09:12:46.612Z,25.8
2018-07-03T09:13:47.347Z,25.3
2018-07-03T09:14:48.101Z,24.3
2018-07-03T09:15:48.835Z,24.0
2018-07-03T09:16:49.576Z,25.5
2018-07-03T09:17:50.365Z,25.3
2018-07-03T09:18:51.057Z,25.0
2018-07-03T09:19:51.794Z,24.4
2018-07-03T09:20:52.534Z,24.7
2018-07-03T09:21:53.271Z,24.8
2018-07-03T09:22:54.011Z,27.3
2018-07-03T09:23:54.739Z,27.2
2018-07-03T09:24:55.521Z,25.4
2018-07-03T09:25:56.259Z,26.3
2018-07-03T09:26:56.997Z,26.0
2018-07-03T09:27:57.745Z,24.7
2018-07-03T09:28:58.482Z,24.7
2018-07-03T09:29:59.211Z,26.0
2018-07-03T09:30:59.950Z,26.4
2018-07-03T09:32:00.697Z,28.0
2018-07-03T09:33:01.443Z,25.9
2018-07-03T09:34:02.425Z,26.2
2018-07-03T09:35:03.363Z,26.0
2018-07-03T09:36:04.107Z,26.5
2018-07-03T09:37:05.095Z,25.3
2018-07-03T09:38:05.833Z,26.8
2018-07-03T09:39:06.575Z,27.7
2018-07-03T09:40:07.306Z,28.1
2018-07-03T09:41:08.045Z,27.5
2018-07-03T09:42:08.891Z,27.3
2018-07-03T09:43:09.879Z,25.0
2018-07-03T09:44:10.613Z,26.0
2018-07-03T09:45:11.349Z,26.9
2018-07-03T09:46:12.083Z,27.6
2018-07-03T09:47:12.815Z,26.4
2018-07-03T09:48:13.563Z,25.9
2018-07-03T09:49:14.299Z,25.8
2018-07-03T09:50:15.034Z,25.2
2018-07-03T09:51:15.783Z,24.9
2018-07-03T09:52:16.571Z,26.4
2018-07-03T09:53:17.297Z,26.4
2018-07-03T09:54:18.042Z,24.9
2018-07-03T09:55:18.779Z,23.2
2018-07-03T09:56:19.517Z,23.4
2018-07-03T09:57:20.254Z,25.0
2018-07-03T09:58:20.990Z,26.4
2018-07-03T09:59:21.732Z,24.9
2018-07-03T10:00:22.481Z,23.9
2018-07-03T10:01:23.207Z,24.9
2018-07-03T10:02:23.946Z,25.3
2018-07-03T10:03:24.695Z,25.0
2018-07-03T10:04:25.432Z,24.9
2018-07-03T10:05:26.422Z,25.6
2018-07-03T10:06:27.171Z,27.3
2018-07-03T10:07:27.903Z,28.2
2018-07-03T10:08:28.660Z,27.3
2018-07-03T10:09:29.385Z,26.6
2018-07-03T10:10:30.126Z,27.9
2018-07-03T10:11:30.867Z,27.7
2018-07-03T10:12:31.604Z,27.5
2018-07-03T10:13:32.359Z,26.8
2018-07-03T10:14:33.102Z,26.0
2018-07-03T10:15:33.847Z,26.1
2018-07-03T10:16:34.587Z,25.5
2018-07-03T10:17:35.326Z,26.3
2018-07-03T10:18:36.070Z,26.2
2018-07-03T10:19:36.812Z,25.8
2018-07-03T10:20:37.553Z,25.4
2018-07-03T10:21:38.283Z,25.8
2018-07-03T10:22:39.039Z,26.4
2018-07-03T10:23:39.762Z,28.0
2018-07-03T10:24:40.854Z,28.6
2018-07-03T10:25:41.598Z,29.1
2018-07-03T10:26:42.337Z,30.2
2018-07-03T10:27:43.076Z,30.8
2018-07-03T10:28:43.813Z,30.4
2018-07-03T10:29:44.564Z,29.3
2018-07-03T10:30:45.302Z,28.9
2018-07-03T10:31:46.052Z,28.5
2018-07-03T10:32:46.789Z,29.3
2018-07-03T10:33:47.522Z,26.2
2018-07-03T10:34:48.266Z,27.0
2018-07-03T10:35:49.008Z,27.3
2018-07-03T10:36:49.742Z,27.7
2018-07-03T10:37:50.478Z,28.2
2018-07-03T10:38:51.220Z,28.8
2018-07-03T10:39:52.317Z,32.1
2018-07-03T10:40:53.054Z,33.0
2018-07-03T10:41:53.793Z,31.0
2018-07-03T10:42:54.519Z,28.7
2018-07-03T10:43:55.260Z,29.0
2018-07-03T10:44:55.990Z,29.6
2018-07-03T10:45:56.736Z,28.3
2018-07-03T10:46:57.459Z,28.7
2018-07-03T10:47:58.353Z,27.5
2018-07-03T10:48:59.093Z,27.8
2018-07-03T10:49:59.848Z,27.4
2018-07-03T10:51:00.587Z,27.4
2018-07-03T10:52:01.323Z,28.0
2018-07-03T10:53:02.218Z,28.2
2018-07-03T10:54:03.271Z,28.0
2018-07-03T10:55:03.943Z,24.3
2018-07-03T10:56:04.695Z,24.3
2018-07-03T10:57:05.428Z,24.6
2018-07-03T10:58:06.163Z,23.7
2018-07-03T10:59:06.901Z,23.6
2018-07-03T11:00:07.642Z,23.1
2018-07-03T11:01:08.368Z,22.7
2018-07-03T11:02:09.112Z,22.9
2018-07-03T11:03:09.852Z,23.5
2018-07-03T11:04:10.587Z,22.4
2018-07-03T11:05:11.380Z,23.2
2018-07-03T11:06:12.376Z,23.8
2018-07-03T11:07:13.112Z,21.9
2018-07-03T11:08:13.862Z,23.0
2018-07-03T11:09:14.593Z,22.9
2018-07-03T11:10:15.624Z,23.2
2018-07-03T11:11:16.366Z,22.9
2018-07-03T11:12:17.113Z,23.4
2018-07-03T11:13:17.859Z,23.5
2018-07-03T11:14:18.595Z,23.8
2018-07-03T11:15:19.328Z,23.1
2018-07-03T11:16:20.313Z,22.6
2018-07-03T11:17:21.056Z,23.0
2018-07-03T11:18:21.795Z,23.1
2018-07-03T11:19:22.567Z,21.0
2018-07-03T11:20:23.419Z,22.6
2018-07-03T11:21:24.153Z,24.0
2018-07-03T11:22:24.903Z,23.5
2018-07-03T11:23:25.645Z,23.5
2018-07-03T11:24:26.389Z,23.0
2018-07-03T11:25:27.182Z,21.7
2018-07-03T11:26:27.910Z,21.8
2018-07-03T11:27:28.655Z,22.1
2018-07-03T11:28:29.394Z,22.0
2018-07-03T11:29:30.145Z,22.4
2018-07-03T11:30:30.875Z,22.0
2018-07-03T11:31:31.632Z,21.2
2018-07-03T11:32:32.365Z,22.0
2018-07-03T11:33:33.117Z,22.2
2018-07-03T11:34:33.852Z,21.8
2018-07-03T11:35:34.591Z,21.9
2018-07-03T11:36:35.323Z,22.4
2018-07-03T11:37:36.084Z,21.4
2018-07-03T11:38:36.828Z,21.8
2018-07-03T11:39:37.585Z,22.7
2018-07-03T11:40:38.328Z,21.5
2018-07-03T11:41:39.319Z,22.0
2018-07-03T11:42:40.060Z,20.9
2018-07-03T11:43:40.802Z,22.0
2018-07-03T11:44:41.598Z,22.5
2018-07-03T11:45:42.309Z,20.8
2018-07-03T11:46:43.056Z,21.7
2018-07-03T11:47:43.801Z,20.8
2018-07-03T11:48:44.558Z,22.9
2018-07-03T11:49:45.297Z,22.2
2018-07-03T11:50:46.040Z,22.4
2018-07-03T11:51:46.790Z,21.5
2018-07-03T11:52:47.528Z,21.5
2018-07-03T11:53:48.371Z,20.7
2018-07-03T11:54:49.115Z,20.2
2018-07-03T11:55:49.848Z,22.3
2018-07-03T11:56:50.835Z,23.7
2018-07-03T11:57:51.582Z,23.7
2018-07-03T11:58:53.021Z,23.0
2018-07-03T11:59:54.008Z,22.4
2018-07-03T12:00:54.748Z,22.0
2018-07-03T12:01:55.499Z,22.2
2018-07-03T12:02:56.243Z,22.7
2018-07-03T12:03:56.978Z,21.2
2018-07-03T12:04:57.714Z,21.4
2018-07-03T12:05:58.453Z,20.9
2018-07-03T12:06:59.202Z,21.4
2018-07-03T12:07:59.952Z,21.4
2018-07-03T12:09:00.850Z,19.9
2018-07-03T12:10:01.596Z,21.1
2018-07-03T12:11:02.347Z,22.1
2018-07-03T12:12:03.357Z,22.4
2018-07-03T12:13:04.091Z,23.0
2018-07-03T12:14:04.824Z,21.4
2018-07-03T12:15:05.591Z,19.9
2018-07-03T12:16:06.337Z,19.5
2018-07-03T12:17:07.089Z,19.5
2018-07-03T12:18:07.824Z,18.7
2018-07-03T12:19:08.566Z,19.5
2018-07-03T12:20:09.327Z,19.4
2018-07-03T12:21:10.075Z,20.2
2018-07-03T12:22:10.831Z,21.1
2018-07-03T12:23:11.576Z,21.3
2018-07-03T12:24:12.310Z,21.4
2018-07-03T12:25:13.052Z,23.2
2018-07-03T12:26:13.784Z,22.9
2018-07-03T12:27:14.780Z,24.3
2018-07-03T12:28:15.512Z,25.6
2018-07-03T12:29:16.344Z,27.1
2018-07-03T12:30:17.005Z,28.0
2018-07-03T12:31:17.748Z,28.0
2018-07-03T12:32:18.497Z,28.8
2018-07-03T12:33:19.234Z,29.6
2018-07-03T12:34:19.978Z,30.2
2018-07-03T12:35:20.720Z,30.7
2018-07-03T12:36:21.476Z,30.3
2018-07-03T12:37:22.268Z,29.6
2018-07-03T12:38:23.269Z,26.0
2018-07-03T12:39:24.021Z,27.5
2018-07-03T12:40:24.745Z,28.4
2018-07-03T12:41:25.485Z,27.5
2018-07-03T12:42:26.285Z,27.1
2018-07-03T12:43:27.022Z,28.6
2018-07-03T12:44:27.767Z,33.1
2018-07-03T12:45:28.507Z,33.5
2018-07-03T12:46:29.244Z,33.1
2018-07-03T12:47:29.988Z,33.1
2018-07-03T12:48:30.731Z,29.9
2018-07-03T12:49:31.472Z,30.5
2018-07-03T12:50:32.214Z,30.6
2018-07-03T12:51:33.055Z,32.7
2018-07-03T12:52:33.796Z,36.8
2018-07-03T12:53:34.523Z,34.1
2018-07-03T12:54:35.263Z,31.7
2018-07-03T12:55:36.006Z,30.4
2018-07-03T12:56:37.015Z,30.3
2018-07-03T12:57:37.735Z,30.5
2018-07-03T12:58:38.464Z,30.6
2018-07-03T12:59:39.350Z,33.1
2018-07-03T13:00:40.101Z,32.2
2018-07-03T13:01:40.844Z,30.9
2018-07-03T13:02:41.840Z,30.1
2018-07-03T13:03:42.581Z,28.6
2018-07-03T13:04:43.324Z,28.0
2018-07-03T13:05:44.060Z,29.1
2018-07-03T13:06:45.064Z,28.0
2018-07-03T13:07:45.809Z,26.2
2018-07-03T13:08:46.554Z,24.8
2018-07-03T13:09:47.290Z,24.1
2018-07-03T13:10:48.041Z,24.6
2018-07-03T13:11:48.765Z,23.3
2018-07-03T13:12:49.504Z,23.1
2018-07-03T13:13:50.245Z,22.3
2018-07-03T13:14:50.981Z,21.4
2018-07-03T13:15:51.747Z,21.5
2018-07-03T13:16:52.465Z,22.0
2018-07-03T13:17:53.212Z,21.5
2018-07-03T13:18:53.940Z,23.6
2018-07-03T13:19:54.733Z,24.1
2018-07-03T13:20:55.467Z,22.2
2018-07-03T13:21:56.211Z,21.5
2018-07-03T13:22:56.943Z,21.3
2018-07-03T13:23:57.678Z,21.2
2018-07-03T13:24:58.421Z,21.9
2018-07-03T13:25:59.566Z,21.0
2018-07-03T13:27:00.301Z,21.4
2018-07-03T13:28:01.289Z,22.1
2018-07-03T13:29:02.284Z,21.0